Time;durP1;ratioP1;P1;durP2;ratioP2;P2;SDS_P1;SDS_P2;PMS_P1;PMS_P2;Temp;Humidity;BMP_temperature;BMP_pressure;BME280_temperature;BME280_humidity;BME280_pressure;Samples;Min_cycle;Max_cycle;Signal;HPM_P1;HPM_P2
2023/02/25 00:00:29;;;;;;;9.98;3.70;;;8.30;99.90;;;;;;5059476;28;20461;-71
2023/02/25 00:02:56;;;;;;;9.10;3.97;;;8.30;99.90;;;;;;5059461;28;20032;-71
2023/02/25 00:05:22;;;;;;;10.52;4.00;;;8.30;99.90;;;;;;5077455;28;20035;-70
2023/02/25 00:07:47;;;;;;;7.35;3.58;;;8.30;99.90;;;;;;5058007;28;20040;-69
2023/02/25 00:10:14;;;;;;;8.67;3.53;;;8.30;99.90;;;;;;5077055;28;20036;-70
2023/02/25 00:12:40;;;;;;;10.00;3.88;;;8.40;99.90;;;;;;5058242;28;20040;-70
2023/02/25 00:15:07;;;;;;;7.75;3.50;;;8.30;99.90;;;;;;5077698;28;20035;-71
2023/02/25 00:17:33;;;;;;;7.57;3.72;;;8.40;99.90;;;;;;5075197;28;20036;-71
2023/02/25 00:19:59;;;;;;;5.60;3.47;;;8.40;99.90;;;;;;5080359;28;20025;-71
2023/02/25 00:22:27;;;;;;;7.25;3.38;;;8.40;99.90;;;;;;5066357;28;20378;-70
2023/02/25 00:24:53;;;;;;;7.40;4.13;;;8.40;99.90;;;;;;5039612;28;20124;-72
2023/02/25 00:27:19;;;;;;;6.95;3.63;;;8.30;99.90;;;;;;5064644;28;20028;-70
2023/02/25 00:29:45;;;;;;;7.10;3.83;;;8.30;99.90;;;;;;5055559;28;20075;-71
2023/02/25 00:32:10;;;;;;;5.43;3.37;;;8.30;99.90;;;;;;5064922;28;20353;-70
2023/02/25 00:34:36;;;;;;;8.83;3.73;;;8.30;99.90;;;;;;5077905;28;20043;-71
2023/02/25 00:37:02;;;;;;;9.77;3.83;;;8.30;99.90;;;;;;5076067;28;20535;-70
2023/02/25 00:39:41;;;;;;;7.03;3.77;;;8.30;99.90;;;;;;5075950;28;20538;-70
2023/02/25 00:42:16;;;;;;;6.68;3.55;;;8.30;99.90;;;;;;5083204;28;20069;-71
2023/02/25 00:44:44;;;;;;;9.18;4.38;;;8.20;99.90;;;;;;5096638;28;20031;-71
2023/02/25 00:47:10;;;;;;;6.85;3.60;;;8.20;99.90;;;;;;5096049;28;20733;-70
2023/02/25 00:49:35;;;;;;;6.45;3.60;;;8.20;99.90;;;;;;5091945;28;20032;-71
2023/02/25 00:52:01;;;;;;;7.93;3.67;;;8.20;99.90;;;;;;5075300;28;20380;-68
2023/02/25 00:54:27;;;;;;;7.93;4.13;;;8.20;99.90;;;;;;5075777;28;20048;-71
2023/02/25 00:56:52;;;;;;;7.15;3.38;;;8.20;99.90;;;;;;5061010;28;20024;-70
2023/02/25 00:59:18;;;;;;;6.73;3.67;;;8.20;99.90;;;;;;5096617;28;20430;-71
2023/02/25 01:01:43;;;;;;;7.60;3.53;;;8.10;99.90;;;;;;5095255;28;20076;-70
2023/02/25 01:04:09;;;;;;;10.90;3.73;;;8.10;99.90;;;;;;5076005;28;20073;-71
2023/02/25 01:06:36;;;;;;;7.55;3.95;;;8.20;99.90;;;;;;5058182;28;20024;-70
2023/02/25 01:09:06;;;;;;;7.82;3.63;;;8.20;99.90;;;;;;5075690;28;20285;-70
2023/02/25 01:11:34;;;;;;;7.60;3.53;;;8.10;99.90;;;;;;5075126;28;20067;-71
2023/02/25 01:14:06;;;;;;;7.18;3.10;;;8.20;99.90;;;;;;5075672;28;20027;-71
2023/02/25 01:16:33;;;;;;;10.25;4.00;;;8.20;99.90;;;;;;5074730;28;20069;-71
2023/02/25 01:19:02;;;;;;;9.32;3.50;;;8.20;99.90;;;;;;5076372;28;20036;-71
2023/02/25 01:21:31;;;;;;;8.57;3.88;;;8.10;99.90;;;;;;5066618;28;20501;-71
2023/02/25 01:24:01;;;;;;;8.00;3.55;;;8.10;99.90;;;;;;5069645;28;20060;-71
2023/02/25 01:26:30;;;;;;;10.25;4.20;;;8.20;99.90;;;;;;5075530;28;20027;-71
2023/02/25 01:28:56;;;;;;;10.57;3.30;;;8.30;99.90;;;;;;5075815;28;20447;-71
2023/02/25 01:31:28;;;;;;;8.38;3.88;;;8.30;99.90;;;;;;5075383;28;20024;-70
2023/02/25 01:33:56;;;;;;;10.43;4.78;;;8.30;99.90;;;;;;5075285;28;20032;-71
2023/02/25 01:36:22;;;;;;;7.18;3.72;;;8.30;99.90;;;;;;5074878;28;20052;-70
2023/02/25 01:38:48;;;;;;;11.67;4.13;;;8.30;99.90;;;;;;5057140;28;20481;-71
2023/02/25 01:41:13;;;;;;;12.57;4.50;;;8.30;99.90;;;;;;5074677;28;20532;-71
2023/02/25 01:43:40;;;;;;;8.30;3.97;;;8.30;99.90;;;;;;5074949;28;20107;-71
2023/02/25 01:46:06;;;;;;;6.00;3.90;;;8.30;99.90;;;;;;5074863;28;20036;-71
2023/02/25 01:48:35;;;;;;;9.20;3.60;;;8.20;99.90;;;;;;5075022;28;20029;-71
2023/02/25 01:51:06;;;;;;;8.85;3.80;;;8.30;99.90;;;;;;5060272;28;20049;-70
2023/02/25 01:53:42;;;;;;;8.43;3.35;;;8.20;99.90;;;;;;5055763;28;20029;-70
2023/02/25 01:56:10;;;;;;;9.23;3.53;;;8.20;99.90;;;;;;5054482;28;20013;-70
2023/02/25 01:58:37;;;;;;;7.57;3.20;;;8.10;99.90;;;;;;5054189;28;20450;-71
2023/02/25 02:01:08;;;;;;;9.43;3.30;;;8.00;99.90;;;;;;5055162;28;20116;-70
2023/02/25 02:03:34;;;;;;;5.85;3.22;;;7.90;99.90;;;;;;5055640;28;20056;-70
2023/02/25 02:06:16;;;;;;;7.20;3.20;;;7.90;99.90;;;;;;5054383;28;20056;-71
2023/02/25 02:08:43;;;;;;;5.13;3.10;;;7.90;99.90;;;;;;5053705;28;20075;-70
2023/02/25 02:11:09;;;;;;;7.53;2.50;;;7.90;99.90;;;;;;5061928;28;20024;-70
2023/02/25 02:13:39;;;;;;;5.18;2.63;;;7.90;99.90;;;;;;5073028;28;20499;-70
2023/02/25 02:16:35;;;;;;;7.22;2.75;;;7.90;99.90;;;;;;5057025;28;20084;-71
2023/02/25 02:19:31;;;;;;;5.38;2.45;;;7.90;99.90;;;;;;5054348;28;20033;-70
2023/02/25 02:22:18;;;;;;;5.82;2.85;;;7.90;99.90;;;;;;5054380;28;20017;-70
2023/02/25 02:25:08;;;;;;;7.72;3.17;;;7.90;99.90;;;;;;5072973;28;20017;-70
2023/02/25 02:27:43;;;;;;;9.43;3.67;;;7.90;99.90;;;;;;5072424;28;20021;-71
2023/02/25 02:30:12;;;;;;;8.02;2.80;;;8.00;99.90;;;;;;5074106;28;20417;-71
2023/02/25 02:33:02;;;;;;;6.60;2.20;;;7.90;99.90;;;;;;5078147;28;20044;-71
2023/02/25 02:35:36;;;;;;;6.03;2.47;;;7.90;99.90;;;;;;5077141;28;20074;-71
2023/02/25 02:38:17;;;;;;;3.88;1.70;;;7.70;99.90;;;;;;5072760;28;20012;-71
2023/02/25 02:41:08;;;;;;;4.45;1.58;;;7.60;99.90;;;;;;5074317;28;20028;-71
2023/02/25 02:43:45;;;;;;;3.25;1.30;;;7.50;99.90;;;;;;5072478;28;20020;-71
2023/02/25 02:47:12;;;;;;;5.20;1.70;;;7.40;99.90;;;;;;5055959;28;20051;-72
2023/02/25 02:50:05;;;;;;;4.95;1.50;;;7.30;99.90;;;;;;4933994;29;20039;-71
2023/02/25 02:52:35;;;;;;;3.13;1.65;;;7.20;99.90;;;;;;4934254;29;20036;-71
2023/02/25 02:55:06;;;;;;;6.05;1.52;;;7.10;99.90;;;;;;4918380;29;20043;-71
2023/02/25 02:57:35;;;;;;;3.65;1.23;;;7.00;99.90;;;;;;4946369;29;20039;-71
2023/02/25 03:00:17;;;;;;;3.65;1.52;;;7.00;99.90;;;;;;4938380;29;20031;-71
2023/02/25 03:02:50;;;;;;;6.72;1.30;;;7.00;99.90;;;;;;4953911;29;20035;-71
2023/02/25 03:05:16;;;;;;;5.85;1.75;;;6.90;99.90;;;;;;4954079;29;20062;-71
2023/02/25 03:07:48;;;;;;;2.88;1.30;;;6.90;99.90;;;;;;4953419;29;20048;-70
2023/02/25 03:10:18;;;;;;;5.13;1.70;;;6.90;99.90;;;;;;4955037;29;20098;-71
2023/02/25 03:12:43;;;;;;;5.00;1.45;;;6.80;99.90;;;;;;4956201;29;20039;-71
2023/02/25 03:15:09;;;;;;;5.83;1.33;;;6.80;99.90;;;;;;4955546;29;20075;-71
2023/02/25 03:17:41;;;;;;;6.70;1.67;;;6.70;99.90;;;;;;4953821;28;20492;-71
2023/02/25 03:20:15;;;;;;;7.07;1.48;;;6.70;99.90;;;;;;4936050;29;20374;-71
2023/02/25 03:22:45;;;;;;;4.93;1.52;;;6.70;99.90;;;;;;4952768;29;20425;-71
2023/02/25 03:25:24;;;;;;;4.93;1.60;;;6.60;99.90;;;;;;4990172;28;20041;-71
2023/02/25 03:27:52;;;;;;;4.35;1.58;;;6.60;99.90;;;;;;5052930;28;20021;-71
2023/02/25 03:30:45;;;;;;;3.95;1.50;;;6.60;99.90;;;;;;5061335;28;20028;-71
2023/02/25 03:33:38;;;;;;;4.15;1.33;;;6.50;99.90;;;;;;4956877;28;20042;-70
2023/02/25 03:36:11;;;;;;;4.05;1.52;;;6.50;99.90;;;;;;4936612;28;20041;-71
2023/02/25 03:38:49;;;;;;;6.18;1.60;;;6.50;99.90;;;;;;4975134;28;20035;-71
2023/02/25 03:41:15;;;;;;;;;;;6.50;99.90;;;;;;4973251;28;20071;-72
2023/02/25 03:43:45;;;;;;;5.37;1.60;;;6.50;99.90;;;;;;4986189;28;19905;-71
2023/02/25 03:46:12;;;;;;;4.40;1.40;;;6.50;99.90;;;;;;4992250;28;20034;-71
2023/02/25 03:48:39;;;;;;;4.35;1.23;;;6.60;99.90;;;;;;4980204;28;20026;-71
2023/02/25 03:51:05;;;;;;;;;;;6.40;99.90;;;;;;4980002;28;20038;-71
2023/02/25 03:53:32;;;;;;;5.35;1.10;;;6.40;99.90;;;;;;4954517;29;19914;-71
2023/02/25 03:56:04;;;;;;;6.15;1.30;;;6.30;99.90;;;;;;4953201;29;20028;-71
2023/02/25 03:58:34;;;;;;;2.75;1.10;;;6.30;99.90;;;;;;4954913;29;20027;-72
2023/02/25 04:01:03;;;;;;;4.38;1.15;;;6.20;99.90;;;;;;4955184;28;20098;-71
2023/02/25 04:03:28;;;;;;;5.75;1.17;;;6.30;99.90;;;;;;4975168;28;20511;-70
2023/02/25 04:05:54;;;;;;;2.33;1.00;;;6.30;99.90;;;;;;4991754;28;20037;-71
2023/02/25 04:08:19;;;;;;;4.93;1.07;;;6.30;99.90;;;;;;4975110;28;20034;-71
2023/02/25 04:10:46;;;;;;;3.03;1.33;;;6.20;99.90;;;;;;5063804;28;20115;-71
2023/02/25 04:13:15;;;;;;;5.05;1.27;;;6.10;99.90;;;;;;5050785;28;20496;-71
2023/02/25 04:15:41;;;;;;;5.40;1.88;;;6.00;99.90;;;;;;5052704;28;20385;-70
2023/02/25 04:18:07;;;;;;;2.92;1.10;;;6.00;99.90;;;;;;5052926;28;20025;-70
2023/02/25 04:20:33;;;;;;;5.20;1.10;;;6.00;99.90;;;;;;5061869;28;20066;-71
2023/02/25 04:23:00;;;;;;;4.50;1.10;;;6.00;99.90;;;;;;5071884;28;20025;-71
2023/02/25 04:25:26;;;;;;;3.72;0.95;;;6.10;99.90;;;;;;5072868;28;20029;-71
2023/02/25 04:27:52;;;;;;;7.10;1.00;;;6.00;99.90;;;;;;5072524;28;20170;-71
2023/02/25 04:30:20;;;;;;;3.83;0.97;;;6.10;99.90;;;;;;5073367;28;20263;-71
2023/02/25 04:32:46;;;;;;;4.45;1.08;;;6.20;99.90;;;;;;5071991;28;20021;-72
2023/02/25 04:35:12;;;;;;;5.63;1.00;;;6.40;99.90;;;;;;5071804;28;20021;-71
2023/02/25 04:37:41;;;;;;;2.30;0.80;;;6.50;99.90;;;;;;5076824;28;20358;-71
2023/02/25 04:40:13;;;;;;;5.13;1.08;;;6.60;99.90;;;;;;5076497;28;20029;-71
2023/02/25 04:42:39;;;;;;;3.95;1.20;;;6.60;99.90;;;;;;5058189;28;20481;-71
2023/02/25 04:45:07;;;;;;;5.40;1.85;;;6.50;99.90;;;;;;5072526;28;20028;-71
2023/02/25 04:47:33;;;;;;;5.63;1.10;;;6.50;99.90;;;;;;5061205;28;20033;-71
2023/02/25 04:49:59;;;;;;;4.18;1.23;;;6.50;99.90;;;;;;5055453;28;20489;-71
2023/02/25 04:52:25;;;;;;;2.23;0.90;;;6.60;99.90;;;;;;5054592;28;20043;-71
2023/02/25 04:54:51;;;;;;;2.88;0.90;;;6.60;99.90;;;;;;5056036;28;20025;-70
2023/02/25 04:57:17;;;;;;;4.97;0.90;;;6.70;99.90;;;;;;5055680;28;20113;-71
2023/02/25 04:59:42;;;;;;;3.70;0.80;;;6.70;99.90;;;;;;5055805;28;20408;-71
2023/02/25 05:02:08;;;;;;;4.63;1.30;;;6.70;99.90;;;;;;5054527;28;20083;-70
2023/02/25 05:04:35;;;;;;;5.97;0.90;;;6.70;99.90;;;;;;5066952;28;20031;-70
2023/02/25 05:07:02;;;;;;;5.25;0.90;;;6.70;99.90;;;;;;5057802;28;20161;-71
2023/02/25 05:09:27;;;;;;;3.75;0.95;;;6.70;99.90;;;;;;5075518;28;20025;-70
2023/02/25 05:11:53;;;;;;;2.07;0.70;;;6.60;99.90;;;;;;5057369;28;20025;-70
2023/02/25 05:14:18;;;;;;;4.20;1.00;;;6.60;99.90;;;;;;5057285;28;20040;-70
2023/02/25 05:16:44;;;;;;;3.90;1.13;;;6.60;99.90;;;;;;5074160;28;20047;-68
2023/02/25 05:19:21;;;;;;;2.07;0.70;;;6.50;99.90;;;;;;5057303;28;20025;-68
2023/02/25 05:21:51;;;;;;;;;;;6.60;99.90;;;;;;5076041;28;20016;-68
2023/02/25 05:24:17;;;;;;;4.55;0.95;;;6.40;99.90;;;;;;5075544;28;19904;-68
2023/02/25 05:26:42;;;;;;;3.10;1.02;;;6.40;99.90;;;;;;5057165;28;20028;-68
2023/02/25 05:29:08;;;;;;;5.87;1.10;;;6.40;99.90;;;;;;5057264;28;20028;-67
2023/02/25 05:31:34;;;;;;;4.82;1.10;;;6.40;99.90;;;;;;5075435;28;20051;-67
2023/02/25 05:33:59;;;;;;;3.88;0.93;;;6.40;99.90;;;;;;5074610;28;20036;-67
2023/02/25 05:36:25;;;;;;;4.77;1.07;;;6.40;99.90;;;;;;5074881;28;20024;-66
2023/02/25 05:38:57;;;;;;;6.30;1.00;;;6.50;99.90;;;;;;5056948;28;20115;-67
2023/02/25 05:41:23;;;;;;;5.20;1.10;;;6.50;99.90;;;;;;5074570;28;20032;-67
2023/02/25 05:43:48;;;;;;;11.32;2.13;;;6.40;99.90;;;;;;5075162;28;20385;-68
2023/02/25 05:46:14;;;;;;;4.77;1.17;;;6.50;99.90;;;;;;5075189;28;20501;-69
2023/02/25 05:48:41;;;;;;;5.50;1.10;;;6.50;99.90;;;;;;5073858;28;20054;-67
2023/02/25 05:51:10;;;;;;;3.63;0.80;;;6.50;99.90;;;;;;5074772;28;20029;-68
2023/02/25 05:53:37;;;;;;;5.25;1.05;;;6.40;99.90;;;;;;5056742;28;20035;-69
2023/02/25 05:56:06;;;;;;;5.63;0.98;;;6.40;99.90;;;;;;5075047;28;20020;-69
2023/02/25 05:58:32;;;;;;;3.60;1.13;;;6.60;99.90;;;;;;5073153;28;20029;-69
2023/02/25 06:00:58;;;;;;;5.80;1.27;;;6.60;99.90;;;;;;5056503;28;20028;-69
2023/02/25 06:03:23;;;;;;;3.23;1.07;;;6.50;99.90;;;;;;5073812;28;20033;-69
2023/02/25 06:05:49;;;;;;;2.83;1.07;;;6.50;99.90;;;;;;5076338;28;20366;-69
2023/02/25 06:08:14;;;;;;;4.93;1.00;;;6.30;99.90;;;;;;5064072;28;20020;-68
2023/02/25 06:10:40;;;;;;;2.20;0.90;;;6.40;99.90;;;;;;5073552;28;20059;-68
2023/02/25 06:13:10;;;;;;;4.50;1.00;;;6.30;99.90;;;;;;5056015;28;20033;-67
2023/02/25 06:15:37;;;;;;;2.65;1.58;;;6.40;99.90;;;;;;5057262;28;20477;-68
2023/02/25 06:18:03;;;;;;;6.55;1.00;;;6.40;99.90;;;;;;5074251;28;20040;-68
2023/02/25 06:20:29;;;;;;;5.10;1.20;;;6.50;99.90;;;;;;5075864;28;20147;-69
2023/02/25 06:22:55;;;;;;;3.87;1.00;;;6.40;99.90;;;;;;5073236;28;20055;-69
2023/02/25 06:25:21;;;;;;;4.73;1.00;;;6.40;99.90;;;;;;5074271;28;20074;-68
2023/02/25 06:27:46;;;;;;;4.93;1.05;;;6.40;99.90;;;;;;5072739;28;20031;-68
2023/02/25 06:30:12;;;;;;;5.77;1.30;;;6.30;99.90;;;;;;5056596;28;20025;-69
2023/02/25 06:32:38;;;;;;;3.67;1.00;;;6.20;99.90;;;;;;5054458;28;20036;-69
2023/02/25 06:35:07;;;;;;;6.00;1.33;;;6.30;99.90;;;;;;5056806;28;20035;-68
2023/02/25 06:37:33;;;;;;;3.30;1.00;;;6.30;99.90;;;;;;5074442;28;20285;-69
2023/02/25 06:39:59;;;;;;;3.75;1.00;;;6.40;99.90;;;;;;5073806;28;20481;-69
2023/02/25 06:42:24;;;;;;;7.57;1.50;;;6.40;99.90;;;;;;5064989;28;20088;-68
2023/02/25 06:44:50;;;;;;;7.20;1.20;;;6.40;99.90;;;;;;5094291;28;20024;-69
2023/02/25 06:47:15;;;;;;;5.73;1.07;;;6.40;99.90;;;;;;5077724;28;20024;-70
2023/02/25 06:49:41;;;;;;;4.63;1.30;;;6.30;99.90;;;;;;5077218;28;20028;-69
2023/02/25 06:52:08;;;;;;;2.53;1.00;;;6.40;99.90;;;;;;5074131;28;20027;-70
2023/02/25 06:54:33;;;;;;;;;;;6.30;99.90;;;;;;5072986;28;20126;-69
2023/02/25 06:56:59;;;;;;;4.88;1.30;;;6.40;99.90;;;;;;5075749;28;19946;-69
2023/02/25 06:59:25;;;;;;;8.55;1.42;;;6.60;99.90;;;;;;5074560;28;20027;-70
2023/02/25 07:01:51;;;;;;;2.90;1.20;;;6.60;99.90;;;;;;5073749;28;20021;-70
2023/02/25 07:04:17;;;;;;;4.23;1.43;;;6.50;99.90;;;;;;5072089;28;20107;-69
2023/02/25 07:06:43;;;;;;;5.47;1.30;;;6.60;99.90;;;;;;5056977;28;20028;-69
2023/02/25 07:09:09;;;;;;;10.52;1.55;;;6.60;99.90;;;;;;5062692;28;20029;-69
2023/02/25 07:11:35;;;;;;;9.27;1.60;;;6.60;99.90;;;;;;5058891;28;20094;-68
2023/02/25 07:14:05;;;;;;;6.03;1.50;;;6.60;99.90;;;;;;5060757;28;20020;-70
2023/02/25 07:16:31;;;;;;;7.30;1.63;;;6.60;99.90;;;;;;5073716;28;20024;-71
2023/02/25 07:18:57;;;;;;;3.97;1.27;;;6.60;99.90;;;;;;5072548;28;20151;-71
2023/02/25 07:21:30;;;;;;;3.28;1.38;;;6.60;99.90;;;;;;5073544;28;20414;-70
2023/02/25 07:23:57;;;;;;;3.75;1.35;;;6.70;99.90;;;;;;5072515;28;20054;-70
2023/02/25 07:26:27;;;;;;;7.30;1.40;;;6.70;99.90;;;;;;5073684;28;20138;-70
2023/02/25 07:28:56;;;;;;;5.57;1.40;;;6.70;99.90;;;;;;5060755;28;20020;-70
2023/02/25 07:31:22;;;;;;;6.75;1.55;;;6.70;99.90;;;;;;5078091;28;20427;-71
2023/02/25 07:33:48;;;;;;;3.67;1.40;;;6.80;99.90;;;;;;5088860;28;20023;-71
2023/02/25 07:36:15;;;;;;;5.75;1.92;;;6.90;99.90;;;;;;5074349;28;20021;-71
2023/02/25 07:38:41;;;;;;;6.28;1.40;;;6.90;99.90;;;;;;5069464;28;20094;-71
2023/02/25 07:41:09;;;;;;;3.25;1.23;;;6.80;99.90;;;;;;5071816;28;20025;-71
2023/02/25 07:43:34;;;;;;;3.28;1.00;;;6.90;99.90;;;;;;5070715;28;20511;-71
2023/02/25 07:46:00;;;;;;;6.43;1.53;;;6.90;99.80;;;;;;5072808;28;20024;-70
2023/02/25 07:48:26;;;;;;;3.87;1.33;;;7.00;99.40;;;;;;5071979;28;20091;-69
2023/02/25 07:50:52;;;;;;;4.30;1.58;;;7.10;99.00;;;;;;5071898;28;20355;-71
2023/02/25 07:53:20;;;;;;;4.90;1.30;;;7.10;99.20;;;;;;5073542;28;20067;-71
2023/02/25 07:55:46;;;;;;;4.93;1.38;;;7.20;99.90;;;;;;5058158;28;20027;-70
2023/02/25 07:58:12;;;;;;;5.77;2.20;;;7.30;99.90;;;;;;5072701;28;20485;-71
2023/02/25 08:00:39;;;;;;;3.40;1.25;;;7.30;99.70;;;;;;5073699;28;20020;-70
2023/02/25 08:03:06;;;;;;;3.72;1.30;;;7.20;99.80;;;;;;5072693;28;20032;-71
2023/02/25 08:05:35;;;;;;;5.30;1.27;;;7.40;99.80;;;;;;5076382;28;20020;-72
2023/02/25 08:08:00;;;;;;;7.85;1.83;;;7.40;99.70;;;;;;5080537;28;20081;-69
2023/02/25 08:10:26;;;;;;;7.03;1.50;;;7.40;99.80;;;;;;5078679;28;20056;-70
2023/02/25 08:12:52;;;;;;;4.83;1.30;;;7.50;99.50;;;;;;5060232;28;20484;-69
2023/02/25 08:15:17;;;;;;;6.40;1.20;;;7.40;99.10;;;;;;5075830;28;20031;-69
2023/02/25 08:17:43;;;;;;;5.37;1.27;;;7.50;98.50;;;;;;5074486;28;20037;-70
2023/02/25 08:20:10;;;;;;;5.57;1.50;;;7.40;98.60;;;;;;5057986;28;20031;-70
2023/02/25 08:22:36;;;;;;;4.88;1.48;;;7.50;98.60;;;;;;5076113;28;20021;-70
2023/02/25 08:25:01;;;;;;;6.07;1.75;;;7.50;98.50;;;;;;5075452;28;20106;-70
2023/02/25 08:27:27;;;;;;;6.70;1.60;;;7.50;98.50;;;;;;5056820;28;20108;-70
2023/02/25 08:29:53;;;;;;;2.73;1.20;;;7.50;98.60;;;;;;5057025;28;20063;-70
2023/02/25 08:32:18;;;;;;;8.83;1.60;;;7.50;98.50;;;;;;5054967;28;20556;-70
2023/02/25 08:34:44;;;;;;;8.70;1.83;;;7.60;98.30;;;;;;5075118;28;20031;-70
2023/02/25 08:37:10;;;;;;;3.63;1.02;;;7.70;98.20;;;;;;5075814;28;20404;-70
2023/02/25 08:39:36;;;;;;;4.63;1.87;;;7.60;98.30;;;;;;5045963;28;20032;-70
2023/02/25 08:42:02;;;;;;;5.70;1.33;;;7.80;98.10;;;;;;5056032;28;20025;-69
2023/02/25 08:44:28;;;;;;;7.10;1.80;;;7.80;98.00;;;;;;5063827;28;20104;-77
2023/02/25 08:46:54;;;;;;;6.30;1.87;;;8.00;98.10;;;;;;5076572;28;20042;-73
2023/02/25 08:49:20;;;;;;;6.57;2.00;;;8.00;98.30;;;;;;5074023;28;20263;-71
2023/02/25 08:51:49;;;;;;;2.78;1.50;;;7.90;98.80;;;;;;5058244;28;20028;-70
2023/02/25 08:54:15;;;;;;;12.70;5.28;;;7.80;98.90;;;;;;5075507;28;20423;-73
2023/02/25 08:56:43;;;;;;;7.73;2.10;;;7.90;99.30;;;;;;5076014;28;20424;-78
2023/02/25 08:59:12;;;;;;;7.22;2.30;;;7.90;99.30;;;;;;5075459;28;20012;-70
2023/02/25 09:01:44;;;;;;;6.75;2.08;;;7.90;99.20;;;;;;5073239;28;20057;-72
2023/02/25 09:04:15;;;;;;;7.35;1.88;;;7.80;99.40;;;;;;5047510;28;20017;-68
2023/02/25 09:06:41;;;;;;;3.85;1.63;;;7.90;99.70;;;;;;5075272;28;20027;-73
2023/02/25 09:09:08;;;;;;;7.28;2.38;;;7.90;99.50;;;;;;5076556;28;20021;-73
2023/02/25 09:11:34;;;;;;;8.43;1.80;;;8.00;99.50;;;;;;5072698;28;20029;-75
2023/02/25 09:14:00;;;;;;;6.28;1.95;;;8.10;99.60;;;;;;5075888;28;20034;-72
2023/02/25 09:16:28;;;;;;;5.13;1.90;;;8.10;99.30;;;;;;5071898;28;20025;-71
2023/02/25 09:18:54;;;;;;;5.78;1.70;;;8.30;99.40;;;;;;5059855;28;20382;-72
2023/02/25 09:21:19;;;;;;;9.73;2.50;;;8.40;98.90;;;;;;5066036;28;20020;-72
2023/02/25 09:23:46;;;;;;;7.53;2.10;;;8.40;99.10;;;;;;5075713;28;20078;-74
2023/02/25 09:26:12;;;;;;;4.03;1.60;;;8.40;98.90;;;;;;5058586;28;20545;-73
2023/02/25 09:28:38;;;;;;;4.65;1.70;;;8.40;99.20;;;;;;5062695;28;20039;-72
2023/02/25 09:31:04;;;;;;;5.90;2.03;;;8.50;99.50;;;;;;5068243;28;20486;-70
2023/02/25 09:33:31;;;;;;;5.43;1.95;;;8.70;98.60;;;;;;5070305;28;20039;-71
2023/02/25 09:36:17;;;;;;;6.53;2.08;;;8.80;98.40;;;;;;5075340;28;20040;-71
2023/02/25 09:38:44;;;;;;;7.07;1.80;;;8.80;98.20;;;;;;5057205;28;20025;-71
2023/02/25 09:41:32;;;;;;;7.68;1.95;;;8.80;98.00;;;;;;5070964;28;20047;-73
2023/02/25 09:44:04;;;;;;;7.38;1.98;;;8.70;98.20;;;;;;5059234;28;20416;-73
2023/02/25 09:46:31;;;;;;;7.85;1.98;;;8.70;98.60;;;;;;5072929;28;20499;-72
2023/02/25 09:49:14;;;;;;;7.78;2.00;;;8.60;98.80;;;;;;5076646;28;20044;-71
2023/02/25 09:51:44;;;;;;;5.85;1.90;;;8.80;98.40;;;;;;5074534;28;20389;-72
2023/02/25 09:54:21;;;;;;;5.75;2.22;;;8.90;98.20;;;;;;5080043;28;20430;-72
2023/02/25 09:56:47;;;;;;;4.68;1.77;;;9.10;97.90;;;;;;5079537;28;20389;-74
2023/02/25 09:59:15;;;;;;;7.18;2.10;;;9.00;97.90;;;;;;5063972;28;20036;-74
2023/02/25 10:01:51;;;;;;;5.63;2.10;;;9.10;97.70;;;;;;5074784;28;20066;-69
2023/02/25 10:04:30;;;;;;;4.20;1.75;;;9.20;97.60;;;;;;5095451;28;20046;-72
2023/02/25 10:07:01;;;;;;;6.18;1.80;;;9.40;97.20;;;;;;5065344;28;20489;-72
2023/02/25 10:09:45;;;;;;;6.75;1.73;;;9.60;96.70;;;;;;5053419;28;20063;-73
2023/02/25 10:12:28;;;;;;;5.43;1.73;;;9.60;96.70;;;;;;5054508;28;20060;-73
2023/02/25 10:15:04;;;;;;;4.40;1.58;;;9.50;96.40;;;;;;5037068;28;20021;-72
2023/02/25 10:17:59;;;;;;;4.85;1.52;;;9.70;96.50;;;;;;5074933;28;20028;-72
2023/02/25 10:20:43;;;;;;;5.90;1.98;;;9.50;96.40;;;;;;5066022;28;20108;-73
2023/02/25 10:23:18;;;;;;;4.78;1.75;;;9.30;96.20;;;;;;5071752;28;20492;-73
2023/02/25 10:25:59;;;;;;;8.48;1.60;;;9.20;96.00;;;;;;5071429;28;20055;-71
2023/02/25 10:28:25;;;;;;;6.32;1.40;;;9.10;95.50;;;;;;5094481;28;20060;-72
2023/02/25 10:31:10;;;;;;;3.80;1.05;;;8.90;95.70;;;;;;5094844;28;20336;-71
2023/02/25 10:33:41;;;;;;;4.78;1.10;;;8.70;95.70;;;;;;5076172;28;20028;-73
2023/02/25 10:36:13;;;;;;;9.23;1.40;;;8.60;96.40;;;;;;5053262;28;20424;-72
2023/02/25 10:38:44;;;;;;;4.18;1.08;;;8.50;96.20;;;;;;5055188;28;20040;-72
2023/02/25 10:41:10;;;;;;;7.50;1.48;;;8.60;96.50;;;;;;5066456;28;20024;-72
2023/02/25 10:43:35;;;;;;;8.52;1.20;;;8.60;96.40;;;;;;5058596;28;20025;-72
2023/02/25 10:46:28;;;;;;;4.37;0.97;;;8.60;96.20;;;;;;5064510;28;20071;-77
2023/02/25 10:49:21;;;;;;;4.25;1.35;;;8.60;95.80;;;;;;5071398;28;20036;-66
2023/02/25 10:52:12;;;;;;;6.53;1.05;;;8.60;95.70;;;;;;5068870;28;20428;-70
2023/02/25 10:54:49;;;;;;;4.07;0.90;;;8.50;95.70;;;;;;5074093;28;20131;-70
2023/02/25 10:57:21;;;;;;;;;;;8.50;95.90;;;;;;5066941;28;20197;-75
2023/02/25 10:59:58;;;;;;;5.68;1.00;;;8.40;95.80;;;;;;5073083;28;19911;-72
2023/02/25 11:02:30;;;;;;;4.97;1.20;;;8.40;96.10;;;;;;5072189;28;20034;-74
2023/02/25 11:04:57;;;;;;;3.20;0.93;;;8.50;96.10;;;;;;5054217;28;20107;-72
2023/02/25 11:07:28;;;;;;;5.80;0.80;;;8.50;96.00;;;;;;5062618;28;20028;-72
2023/02/25 11:10:08;;;;;;;6.82;1.10;;;8.50;95.80;;;;;;5055393;28;20024;-73
2023/02/25 11:12:48;;;;;;;5.50;1.02;;;8.40;95.50;;;;;;5057467;28;20028;-72
2023/02/25 11:15:26;;;;;;;7.13;1.05;;;8.30;95.80;;;;;;5088769;28;20104;-72
2023/02/25 11:17:54;;;;;;;5.10;1.40;;;8.30;96.00;;;;;;5115764;22;20074;-70
2023/02/25 11:20:28;;;;;;;4.68;1.15;;;8.30;96.20;;;;;;5075726;28;20537;-70
2023/02/25 11:22:56;;;;;;;10.82;3.78;;;8.30;95.80;;;;;;5097496;28;20068;-71
2023/02/25 11:25:42;;;;;;;4.45;1.10;;;8.40;96.40;;;;;;5107380;28;20020;-71
2023/02/25 11:28:29;;;;;;;4.35;1.00;;;8.50;95.90;;;;;;5075440;28;20027;-70
2023/02/25 11:31:14;;;;;;;7.10;1.25;;;8.70;95.80;;;;;;5094240;28;20095;-71
2023/02/25 11:33:42;;;;;;;5.00;1.25;;;8.70;95.60;;;;;;5075230;28;20510;-70
2023/02/25 11:36:09;;;;;;;3.88;0.93;;;8.60;95.50;;;;;;5092996;28;20040;-71
2023/02/25 11:38:41;;;;;;;3.58;1.05;;;8.60;95.80;;;;;;5073970;28;20020;-73
2023/02/25 11:41:21;;;;;;;4.28;1.35;;;8.50;95.70;;;;;;5100132;28;20483;-76
2023/02/25 11:43:48;;;;;;;4.45;2.00;;;8.50;95.80;;;;;;5083256;28;20089;-76
2023/02/25 11:46:22;;;;;;;3.40;1.00;;;8.50;96.10;;;;;;5064978;28;20028;-76
2023/02/25 11:48:55;;;;;;;2.83;1.20;;;8.40;95.90;;;;;;5062664;28;20059;-77
2023/02/25 11:51:50;;;;;;;5.43;0.90;;;8.20;96.10;;;;;;5092306;28;20476;-72
2023/02/25 11:54:22;;;;;;;14.10;3.55;;;8.10;96.60;;;;;;5081521;28;20020;-72
2023/02/25 11:57:13;;;;;;;5.68;1.42;;;7.90;96.90;;;;;;5070179;28;20456;-72
2023/02/25 11:59:41;;;;;;;6.35;1.35;;;7.80;97.70;;;;;;5081731;28;20020;-71
2023/02/25 12:02:25;;;;;;;7.82;1.83;;;7.70;98.50;;;;;;5081016;28;20038;-70
2023/02/25 12:05:15;;;;;;;7.10;1.40;;;7.50;98.90;;;;;;5099781;28;20031;-71
2023/02/25 12:08:13;;;;;;;6.70;1.95;;;7.40;99.40;;;;;;5081301;28;20038;-73
2023/02/25 12:11:21;;;;;;;9.98;1.70;;;7.50;99.40;;;;;;5100461;28;20020;-73
2023/02/25 12:14:12;;;;;;;8.00;1.58;;;7.50;99.50;;;;;;5109549;28;20037;-69
2023/02/25 12:17:07;;;;;;;5.10;1.42;;;7.70;99.00;;;;;;5075761;28;20082;-69
2023/02/25 12:19:51;;;;;;;4.72;1.40;;;7.70;99.00;;;;;;5079088;28;20051;-69
2023/02/25 12:22:26;;;;;;;7.80;1.42;;;7.70;98.90;;;;;;5061260;28;20058;-69
2023/02/25 12:25:18;;;;;;;6.53;1.60;;;7.80;99.20;;;;;;5061672;28;20021;-70
2023/02/25 12:28:16;;;;;;;7.95;1.40;;;8.00;98.90;;;;;;5069452;28;20053;-70
2023/02/25 12:31:03;;;;;;;5.88;1.50;;;8.20;97.80;;;;;;5081232;28;20016;-70
2023/02/25 12:33:41;;;;;;;5.35;1.52;;;8.20;98.00;;;;;;5075843;28;20565;-69
2023/02/25 12:36:41;;;;;;;5.28;1.27;;;8.40;97.60;;;;;;5099078;28;20031;-69
2023/02/25 12:39:21;;;;;;;4.28;1.42;;;8.60;97.40;;;;;;5085544;28;20092;-69
2023/02/25 12:41:56;;;;;;;4.88;1.40;;;8.60;97.30;;;;;;5061122;28;20113;-69
2023/02/25 12:44:22;;;;;;;7.55;1.77;;;8.70;97.20;;;;;;5079079;28;20052;-69
2023/02/25 12:47:06;;;;;;;6.67;2.10;;;8.70;97.20;;;;;;5079095;28;20381;-68
2023/02/25 12:50:09;;;;;;;5.18;1.30;;;8.70;97.30;;;;;;5078601;28;20403;-70
2023/02/25 12:52:56;;;;;;;6.35;1.42;;;8.50;97.50;;;;;;5073219;28;20036;-68
2023/02/25 12:55:59;;;;;;;5.90;2.00;;;8.50;97.30;;;;;;5077860;28;20028;-69
2023/02/25 12:58:52;;;;;;;6.35;1.20;;;8.40;97.50;;;;;;5096205;28;20073;-68
2023/02/25 13:01:42;;;;;;;4.05;1.15;;;8.40;97.60;;;;;;5095367;28;20117;-68
2023/02/25 13:04:38;;;;;;;7.38;1.73;;;8.40;97.70;;;;;;5095965;28;20357;-68
2023/02/25 13:07:39;;;;;;;5.45;1.10;;;8.50;96.90;;;;;;5096512;28;20028;-68
2023/02/25 13:10:30;;;;;;;3.00;1.08;;;8.50;97.00;;;;;;5097190;28;20016;-68
2023/02/25 13:13:16;;;;;;;4.63;1.52;;;8.50;97.00;;;;;;5097764;28;20020;-69
2023/02/25 13:16:16;;;;;;;5.45;1.50;;;8.60;95.90;;;;;;5097921;28;20440;-68
2023/02/25 13:19:21;;;;;;;9.07;1.75;;;8.70;95.30;;;;;;5105734;28;20096;-68
2023/02/25 13:22:08;;;;;;;5.63;1.58;;;8.80;95.40;;;;;;5101164;28;20028;-68